sensor_id;sensor_type;location;lat;lon;timestamp;P1;durP1;ratioP1;P2;durP2;ratioP2
76228;SDS011;65021;53.174;18.160;2023-10-13T00:02:03;8.70;;;3.10;;
76228;SDS011;65021;53.174;18.160;2023-10-13T00:04:32;9.50;;;3.50;;
76228;SDS011;65021;53.174;18.160;2023-10-13T00:07:04;10.60;;;3.20;;
76228;SDS011;65021;53.174;18.160;2023-10-13T00:09:34;13.90;;;4.10;;
76228;SDS011;65021;53.174;18.160;2023-10-13T00:12:07;9.10;;;4.20;;
76228;SDS011;65021;53.174;18.160;2023-10-13T00:14:40;13.50;;;3.80;;
76228;SDS011;65021;53.174;18.160;2023-10-13T00:17:07;12.30;;;4.60;;
76228;SDS011;65021;53.174;18.160;2023-10-13T00:19:37;16.80;;;4.70;;
76228;SDS011;65021;53.174;18.160;2023-10-13T00:22:08;13.20;;;4.70;;
76228;SDS011;65021;53.174;18.160;2023-10-13T00:27:18;16.20;;;5.10;;
76228;SDS011;65021;53.174;18.160;2023-10-13T00:32:46;12.30;;;4.40;;
76228;SDS011;65021;53.174;18.160;2023-10-13T00:37:51;10.80;;;2.90;;
76228;SDS011;65021;53.174;18.160;2023-10-13T00:40:22;10.30;;;2.70;;
76228;SDS011;65021;53.174;18.160;2023-10-13T00:42:59;9.90;;;3.90;;
76228;SDS011;65021;53.174;18.160;2023-10-13T00:45:51;13.10;;;3.80;;
76228;SDS011;65021;53.174;18.160;2023-10-13T00:48:28;9.40;;;2.30;;
76228;SDS011;65021;53.174;18.160;2023-10-13T00:51:01;7.60;;;2.60;;
76228;SDS011;65021;53.174;18.160;2023-10-13T00:53:29;11.40;;;3.80;;
76228;SDS011;65021;53.174;18.160;2023-10-13T00:56:02;12.70;;;3.90;;
76228;SDS011;65021;53.174;18.160;2023-10-13T00:58:45;10.20;;;3.60;;
76228;SDS011;65021;53.174;18.160;2023-10-13T01:01:19;11.80;;;3.80;;
76228;SDS011;65021;53.174;18.160;2023-10-13T01:03:55;8.70;;;4.30;;
76228;SDS011;65021;53.174;18.160;2023-10-13T01:06:31;12.20;;;3.60;;
76228;SDS011;65021;53.174;18.160;2023-10-13T01:11:46;9.40;;;3.30;;
76228;SDS011;65021;53.174;18.160;2023-10-13T01:14:21;9.20;;;3.20;;
76228;SDS011;65021;53.174;18.160;2023-10-13T01:16:49;12.80;;;4.10;;
76228;SDS011;65021;53.174;18.160;2023-10-13T01:19:19;11.20;;;3.80;;
76228;SDS011;65021;53.174;18.160;2023-10-13T01:21:51;11.40;;;5.10;;
76228;SDS011;65021;53.174;18.160;2023-10-13T01:24:22;7.20;;;2.50;;
76228;SDS011;65021;53.174;18.160;2023-10-13T01:26:50;9.00;;;3.60;;
76228;SDS011;65021;53.174;18.160;2023-10-13T01:29:19;5.00;;;2.30;;
76228;SDS011;65021;53.174;18.160;2023-10-13T01:31:52;10.80;;;3.20;;
76228;SDS011;65021;53.174;18.160;2023-10-13T01:34:19;8.80;;;2.70;;
76228;SDS011;65021;53.174;18.160;2023-10-13T01:39:20;14.20;;;5.60;;
76228;SDS011;65021;53.174;18.160;2023-10-13T01:41:47;7.50;;;2.90;;
76228;SDS011;65021;53.174;18.160;2023-10-13T01:44:24;11.20;;;3.60;;
76228;SDS011;65021;53.174;18.160;2023-10-13T01:47:02;9.10;;;3.50;;
76228;SDS011;65021;53.174;18.160;2023-10-13T01:49:32;10.10;;;3.90;;
76228;SDS011;65021;53.174;18.160;2023-10-13T01:52:11;10.40;;;3.80;;
76228;SDS011;65021;53.174;18.160;2023-10-13T01:54:47;8.50;;;3.40;;
76228;SDS011;65021;53.174;18.160;2023-10-13T01:57:16;10.00;;;4.20;;
76228;SDS011;65021;53.174;18.160;2023-10-13T01:59:44;10.20;;;3.60;;
76228;SDS011;65021;53.174;18.160;2023-10-13T02:02:11;9.80;;;3.40;;
76228;SDS011;65021;53.174;18.160;2023-10-13T02:04:42;7.00;;;3.00;;
76228;SDS011;65021;53.174;18.160;2023-10-13T02:07:15;12.00;;;3.60;;
76228;SDS011;65021;53.174;18.160;2023-10-13T02:09:42;9.10;;;3.50;;
76228;SDS011;65021;53.174;18.160;2023-10-13T02:12:09;10.90;;;4.40;;
76228;SDS011;65021;53.174;18.160;2023-10-13T02:14:37;10.40;;;3.50;;
76228;SDS011;65021;53.174;18.160;2023-10-13T02:17:04;11.10;;;3.40;;
76228;SDS011;65021;53.174;18.160;2023-10-13T02:19:40;12.50;;;4.00;;
76228;SDS011;65021;53.174;18.160;2023-10-13T02:22:11;7.80;;;3.40;;
76228;SDS011;65021;53.174;18.160;2023-10-13T02:24:44;12.70;;;3.80;;
76228;SDS011;65021;53.174;18.160;2023-10-13T02:27:11;11.00;;;4.10;;
76228;SDS011;65021;53.174;18.160;2023-10-13T02:29:40;8.40;;;3.80;;
76228;SDS011;65021;53.174;18.160;2023-10-13T02:32:07;10.80;;;3.40;;
76228;SDS011;65021;53.174;18.160;2023-10-13T02:34:44;9.80;;;3.80;;
76228;SDS011;65021;53.174;18.160;2023-10-13T02:37:11;9.50;;;3.90;;
76228;SDS011;65021;53.174;18.160;2023-10-13T02:39:40;7.90;;;3.80;;
76228;SDS011;65021;53.174;18.160;2023-10-13T02:42:09;10.00;;;3.70;;
76228;SDS011;65021;53.174;18.160;2023-10-13T02:44:49;8.20;;;3.50;;
76228;SDS011;65021;53.174;18.160;2023-10-13T02:47:17;11.50;;;3.90;;
76228;SDS011;65021;53.174;18.160;2023-10-13T02:49:46;10.30;;;3.80;;
76228;SDS011;65021;53.174;18.160;2023-10-13T02:52:13;10.60;;;4.10;;
76228;SDS011;65021;53.174;18.160;2023-10-13T02:54:41;8.40;;;3.80;;
76228;SDS011;65021;53.174;18.160;2023-10-13T02:57:17;10.90;;;3.90;;
76228;SDS011;65021;53.174;18.160;2023-10-13T02:59:44;10.50;;;4.10;;
76228;SDS011;65021;53.174;18.160;2023-10-13T03:02:16;7.90;;;3.80;;
76228;SDS011;65021;53.174;18.160;2023-10-13T03:04:55;9.40;;;3.50;;
76228;SDS011;65021;53.174;18.160;2023-10-13T03:07:26;6.90;;;3.20;;
76228;SDS011;65021;53.174;18.160;2023-10-13T03:09:56;8.10;;;3.40;;
76228;SDS011;65021;53.174;18.160;2023-10-13T03:12:26;7.20;;;2.90;;
76228;SDS011;65021;53.174;18.160;2023-10-13T03:14:59;6.80;;;2.90;;
76228;SDS011;65021;53.174;18.160;2023-10-13T03:17:49;8.80;;;3.50;;
76228;SDS011;65021;53.174;18.160;2023-10-13T03:20:16;10.50;;;3.80;;
76228;SDS011;65021;53.174;18.160;2023-10-13T03:22:52;11.50;;;3.90;;
76228;SDS011;65021;53.174;18.160;2023-10-13T03:25:19;10.00;;;2.90;;
76228;SDS011;65021;53.174;18.160;2023-10-13T03:27:58;8.00;;;2.90;;
76228;SDS011;65021;53.174;18.160;2023-10-13T03:30:25;7.80;;;3.20;;
76228;SDS011;65021;53.174;18.160;2023-10-13T03:33:05;10.80;;;4.40;;
76228;SDS011;65021;53.174;18.160;2023-10-13T03:35:34;11.50;;;4.00;;
76228;SDS011;65021;53.174;18.160;2023-10-13T03:38:04;9.10;;;4.90;;
76228;SDS011;65021;53.174;18.160;2023-10-13T03:40:50;9.70;;;4.10;;
76228;SDS011;65021;53.174;18.160;2023-10-13T03:43:33;12.50;;;4.60;;
76228;SDS011;65021;53.174;18.160;2023-10-13T03:46:11;10.40;;;4.20;;
76228;SDS011;65021;53.174;18.160;2023-10-13T03:48:37;10.90;;;4.60;;
76228;SDS011;65021;53.174;18.160;2023-10-13T03:51:30;12.40;;;5.90;;
76228;SDS011;65021;53.174;18.160;2023-10-13T03:54:00;12.30;;;4.80;;
76228;SDS011;65021;53.174;18.160;2023-10-13T03:56:33;12.90;;;6.40;;
76228;SDS011;65021;53.174;18.160;2023-10-13T03:59:06;10.70;;;4.60;;
76228;SDS011;65021;53.174;18.160;2023-10-13T04:01:36;14.40;;;5.40;;
76228;SDS011;65021;53.174;18.160;2023-10-13T04:04:18;14.40;;;4.80;;
76228;SDS011;65021;53.174;18.160;2023-10-13T04:09:31;10.30;;;4.80;;
76228;SDS011;65021;53.174;18.160;2023-10-13T04:11:58;10.90;;;4.00;;
76228;SDS011;65021;53.174;18.160;2023-10-13T04:14:29;10.50;;;4.50;;
76228;SDS011;65021;53.174;18.160;2023-10-13T04:17:13;11.40;;;4.90;;
76228;SDS011;65021;53.174;18.160;2023-10-13T04:19:49;14.30;;;5.00;;
76228;SDS011;65021;53.174;18.160;2023-10-13T04:25:19;11.10;;;5.00;;
76228;SDS011;65021;53.174;18.160;2023-10-13T04:28:10;11.30;;;4.90;;
76228;SDS011;65021;53.174;18.160;2023-10-13T04:33:23;7.00;;;3.10;;
76228;SDS011;65021;53.174;18.160;2023-10-13T04:36:02;8.80;;;4.20;;
76228;SDS011;65021;53.174;18.160;2023-10-13T04:38:51;9.90;;;3.50;;
76228;SDS011;65021;53.174;18.160;2023-10-13T04:41:24;8.70;;;3.50;;
76228;SDS011;65021;53.174;18.160;2023-10-13T04:43:58;10.90;;;4.80;;
76228;SDS011;65021;53.174;18.160;2023-10-13T04:46:31;7.90;;;3.90;;
76228;SDS011;65021;53.174;18.160;2023-10-13T04:49:13;8.40;;;4.20;;
76228;SDS011;65021;53.174;18.160;2023-10-13T04:51:55;7.70;;;3.30;;
76228;SDS011;65021;53.174;18.160;2023-10-13T04:54:27;8.80;;;4.10;;
76228;SDS011;65021;53.174;18.160;2023-10-13T04:57:23;10.70;;;4.50;;
76228;SDS011;65021;53.174;18.160;2023-10-13T05:00:00;11.60;;;5.70;;
76228;SDS011;65021;53.174;18.160;2023-10-13T05:02:41;10.40;;;4.80;;
76228;SDS011;65021;53.174;18.160;2023-10-13T05:05:27;9.90;;;4.40;;
76228;SDS011;65021;53.174;18.160;2023-10-13T05:08:12;8.80;;;4.20;;
76228;SDS011;65021;53.174;18.160;2023-10-13T05:10:57;8.70;;;4.30;;
76228;SDS011;65021;53.174;18.160;2023-10-13T05:13:52;9.70;;;4.60;;
76228;SDS011;65021;53.174;18.160;2023-10-13T05:16:37;8.80;;;4.10;;
76228;SDS011;65021;53.174;18.160;2023-10-13T05:19:22;9.70;;;4.60;;
76228;SDS011;65021;53.174;18.160;2023-10-13T05:22:07;8.00;;;4.60;;
76228;SDS011;65021;53.174;18.160;2023-10-13T05:24:52;9.40;;;4.60;;
76228;SDS011;65021;53.174;18.160;2023-10-13T05:27:37;10.10;;;5.60;;
76228;SDS011;65021;53.174;18.160;2023-10-13T05:30:23;10.00;;;5.20;;
76228;SDS011;65021;53.174;18.160;2023-10-13T05:33:08;6.30;;;3.30;;
76228;SDS011;65021;53.174;18.160;2023-10-13T05:35:53;9.00;;;5.00;;
76228;SDS011;65021;53.174;18.160;2023-10-13T05:38:38;8.20;;;4.10;;
76228;SDS011;65021;53.174;18.160;2023-10-13T05:41:23;8.00;;;4.50;;
76228;SDS011;65021;53.174;18.160;2023-10-13T05:44:08;5.20;;;1.90;;
76228;SDS011;65021;53.174;18.160;2023-10-13T05:46:53;6.30;;;3.80;;
76228;SDS011;65021;53.174;18.160;2023-10-13T05:49:48;6.60;;;3.70;;
76228;SDS011;65021;53.174;18.160;2023-10-13T05:52:31;7.10;;;3.30;;
76228;SDS011;65021;53.174;18.160;2023-10-13T05:55:20;5.80;;;3.50;;
76228;SDS011;65021;53.174;18.160;2023-10-13T05:58:05;6.90;;;3.60;;
76228;SDS011;65021;53.174;18.160;2023-10-13T06:00:51;9.50;;;4.90;;
76228;SDS011;65021;53.174;18.160;2023-10-13T06:03:36;9.40;;;5.40;;
76228;SDS011;65021;53.174;18.160;2023-10-13T06:06:21;6.80;;;3.50;;
76228;SDS011;65021;53.174;18.160;2023-10-13T06:09:07;8.10;;;4.40;;
76228;SDS011;65021;53.174;18.160;2023-10-13T06:11:52;8.20;;;4.20;;
76228;SDS011;65021;53.174;18.160;2023-10-13T06:14:38;9.00;;;4.30;;
76228;SDS011;65021;53.174;18.160;2023-10-13T06:17:24;10.40;;;4.60;;
76228;SDS011;65021;53.174;18.160;2023-10-13T06:20:26;8.50;;;4.40;;
76228;SDS011;65021;53.174;18.160;2023-10-13T06:23:11;11.00;;;5.50;;
76228;SDS011;65021;53.174;18.160;2023-10-13T06:25:56;14.40;;;5.40;;
76228;SDS011;65021;53.174;18.160;2023-10-13T06:28:41;12.10;;;5.20;;
76228;SDS011;65021;53.174;18.160;2023-10-13T06:31:11;13.20;;;4.80;;
76228;SDS011;65021;53.174;18.160;2023-10-13T06:33:52;15.80;;;6.20;;
76228;SDS011;65021;53.174;18.160;2023-10-13T06:38:48;12.20;;;5.30;;
76228;SDS011;65021;53.174;18.160;2023-10-13T06:41:34;13.10;;;5.30;;
76228;SDS011;65021;53.174;18.160;2023-10-13T06:44:06;9.80;;;4.70;;
76228;SDS011;65021;53.174;18.160;2023-10-13T06:46:41;11.80;;;5.00;;
76228;SDS011;65021;53.174;18.160;2023-10-13T06:49:11;11.30;;;4.90;;
76228;SDS011;65021;53.174;18.160;2023-10-13T06:51:39;13.20;;;4.80;;
76228;SDS011;65021;53.174;18.160;2023-10-13T06:54:06;13.30;;;5.90;;
76228;SDS011;65021;53.174;18.160;2023-10-13T06:56:46;9.90;;;4.40;;
76228;SDS011;65021;53.174;18.160;2023-10-13T06:59:13;12.50;;;5.60;;
76228;SDS011;65021;53.174;18.160;2023-10-13T07:01:40;14.60;;;5.40;;
76228;SDS011;65021;53.174;18.160;2023-10-13T07:04:08;11.00;;;4.40;;
76228;SDS011;65021;53.174;18.160;2023-10-13T07:06:42;11.30;;;4.60;;
76228;SDS011;65021;53.174;18.160;2023-10-13T07:09:15;13.20;;;4.80;;
76228;SDS011;65021;53.174;18.160;2023-10-13T07:12:02;9.90;;;4.80;;
76228;SDS011;65021;53.174;18.160;2023-10-13T07:14:33;11.90;;;5.50;;
76228;SDS011;65021;53.174;18.160;2023-10-13T07:17:04;11.60;;;5.40;;
76228;SDS011;65021;53.174;18.160;2023-10-13T07:19:31;10.10;;;4.50;;
76228;SDS011;65021;53.174;18.160;2023-10-13T07:22:00;9.70;;;4.20;;
76228;SDS011;65021;53.174;18.160;2023-10-13T07:24:47;10.40;;;4.30;;
76228;SDS011;65021;53.174;18.160;2023-10-13T07:27:24;8.20;;;4.30;;
76228;SDS011;65021;53.174;18.160;2023-10-13T07:29:51;11.30;;;4.00;;
76228;SDS011;65021;53.174;18.160;2023-10-13T07:32:41;7.70;;;4.00;;
76228;SDS011;65021;53.174;18.160;2023-10-13T07:35:16;8.70;;;3.80;;
76228;SDS011;65021;53.174;18.160;2023-10-13T07:37:46;9.70;;;4.60;;
76228;SDS011;65021;53.174;18.160;2023-10-13T07:40:18;12.00;;;5.00;;
76228;SDS011;65021;53.174;18.160;2023-10-13T07:42:51;9.60;;;4.90;;
76228;SDS011;65021;53.174;18.160;2023-10-13T07:45:18;8.90;;;4.60;;
76228;SDS011;65021;53.174;18.160;2023-10-13T07:48:03;10.60;;;4.60;;
76228;SDS011;65021;53.174;18.160;2023-10-13T07:50:43;7.70;;;4.70;;
76228;SDS011;65021;53.174;18.160;2023-10-13T07:53:11;12.90;;;5.80;;
76228;SDS011;65021;53.174;18.160;2023-10-13T07:55:50;11.40;;;5.50;;
76228;SDS011;65021;53.174;18.160;2023-10-13T07:58:27;10.70;;;5.10;;
76228;SDS011;65021;53.174;18.160;2023-10-13T08:00:53;13.70;;;5.10;;
76228;SDS011;65021;53.174;18.160;2023-10-13T08:03:33;10.70;;;5.40;;
76228;SDS011;65021;53.174;18.160;2023-10-13T08:06:13;7.80;;;3.80;;
76228;SDS011;65021;53.174;18.160;2023-10-13T08:08:40;9.00;;;4.90;;
76228;SDS011;65021;53.174;18.160;2023-10-13T08:11:13;9.80;;;5.40;;
76228;SDS011;65021;53.174;18.160;2023-10-13T08:16:20;13.40;;;5.50;;
76228;SDS011;65021;53.174;18.160;2023-10-13T08:18:49;13.20;;;5.80;;
76228;SDS011;65021;53.174;18.160;2023-10-13T08:21:16;15.90;;;6.60;;
76228;SDS011;65021;53.174;18.160;2023-10-13T08:23:44;13.20;;;5.60;;
76228;SDS011;65021;53.174;18.160;2023-10-13T08:26:20;13.20;;;6.10;;
76228;SDS011;65021;53.174;18.160;2023-10-13T08:29:03;13.90;;;6.90;;
76228;SDS011;65021;53.174;18.160;2023-10-13T08:31:49;13.70;;;6.80;;
76228;SDS011;65021;53.174;18.160;2023-10-13T08:34:52;13.10;;;5.90;;
76228;SDS011;65021;53.174;18.160;2023-10-13T08:37:20;15.30;;;7.10;;
76228;SDS011;65021;53.174;18.160;2023-10-13T08:39:48;15.20;;;6.80;;
76228;SDS011;65021;53.174;18.160;2023-10-13T08:42:44;12.60;;;5.80;;
76228;SDS011;65021;53.174;18.160;2023-10-13T08:45:14;12.90;;;6.30;;
76228;SDS011;65021;53.174;18.160;2023-10-13T08:47:57;14.30;;;6.70;;
76228;SDS011;65021;53.174;18.160;2023-10-13T08:50:48;14.00;;;6.40;;
76228;SDS011;65021;53.174;18.160;2023-10-13T08:53:26;12.90;;;6.30;;
76228;SDS011;65021;53.174;18.160;2023-10-13T08:56:01;19.90;;;7.70;;
76228;SDS011;65021;53.174;18.160;2023-10-13T08:58:58;11.60;;;5.70;;
76228;SDS011;65021;53.174;18.160;2023-10-13T09:01:28;14.70;;;8.20;;
76228;SDS011;65021;53.174;18.160;2023-10-13T09:04:15;13.40;;;6.70;;
76228;SDS011;65021;53.174;18.160;2023-10-13T09:06:45;13.90;;;6.80;;
76228;SDS011;65021;53.174;18.160;2023-10-13T09:09:48;14.30;;;6.80;;
76228;SDS011;65021;53.174;18.160;2023-10-13T09:12:23;16.00;;;7.20;;
76228;SDS011;65021;53.174;18.160;2023-10-13T09:15:03;16.10;;;6.50;;
76228;SDS011;65021;53.174;18.160;2023-10-13T09:17:39;14.00;;;7.10;;
76228;SDS011;65021;53.174;18.160;2023-10-13T09:20:08;11.60;;;6.30;;
76228;SDS011;65021;53.174;18.160;2023-10-13T09:22:54;14.50;;;7.20;;
76228;SDS011;65021;53.174;18.160;2023-10-13T09:25:42;12.90;;;7.00;;
76228;SDS011;65021;53.174;18.160;2023-10-13T09:28:27;14.10;;;6.30;;
76228;SDS011;65021;53.174;18.160;2023-10-13T09:30:55;15.20;;;6.60;;
76228;SDS011;65021;53.174;18.160;2023-10-13T09:33:28;13.90;;;6.50;;
76228;SDS011;65021;53.174;18.160;2023-10-13T09:36:16;14.30;;;5.90;;
76228;SDS011;65021;53.174;18.160;2023-10-13T09:38:43;13.40;;;6.30;;
76228;SDS011;65021;53.174;18.160;2023-10-13T09:41:33;14.60;;;6.80;;
76228;SDS011;65021;53.174;18.160;2023-10-13T09:44:03;13.00;;;6.40;;
76228;SDS011;65021;53.174;18.160;2023-10-13T09:46:30;17.50;;;7.30;;
76228;SDS011;65021;53.174;18.160;2023-10-13T09:49:05;16.60;;;7.80;;
76228;SDS011;65021;53.174;18.160;2023-10-13T09:52:02;16.80;;;7.00;;
76228;SDS011;65021;53.174;18.160;2023-10-13T09:54:36;21.40;;;7.10;;
76228;SDS011;65021;53.174;18.160;2023-10-13T09:57:12;16.50;;;7.30;;
76228;SDS011;65021;53.174;18.160;2023-10-13T09:59:45;16.60;;;7.30;;
76228;SDS011;65021;53.174;18.160;2023-10-13T10:02:18;19.30;;;8.20;;
76228;SDS011;65021;53.174;18.160;2023-10-13T10:04:52;22.00;;;9.00;;
76228;SDS011;65021;53.174;18.160;2023-10-13T10:07:25;14.10;;;5.60;;
76228;SDS011;65021;53.174;18.160;2023-10-13T10:09:55;17.90;;;8.60;;
76228;SDS011;65021;53.174;18.160;2023-10-13T10:17:54;24.20;;;10.20;;
76228;SDS011;65021;53.174;18.160;2023-10-13T10:20:28;23.10;;;9.20;;
76228;SDS011;65021;53.174;18.160;2023-10-13T10:23:05;25.60;;;10.00;;
76228;SDS011;65021;53.174;18.160;2023-10-13T10:25:38;21.90;;;9.80;;
76228;SDS011;65021;53.174;18.160;2023-10-13T10:28:10;27.20;;;10.10;;
76228;SDS011;65021;53.174;18.160;2023-10-13T10:30:42;23.50;;;10.10;;
76228;SDS011;65021;53.174;18.160;2023-10-13T10:33:10;22.40;;;9.10;;
76228;SDS011;65021;53.174;18.160;2023-10-13T10:35:42;21.10;;;10.30;;
76228;SDS011;65021;53.174;18.160;2023-10-13T10:40:57;25.10;;;11.30;;
76228;SDS011;65021;53.174;18.160;2023-10-13T10:43:35;23.20;;;10.80;;
76228;SDS011;65021;53.174;18.160;2023-10-13T10:46:15;20.90;;;10.40;;
76228;SDS011;65021;53.174;18.160;2023-10-13T10:48:44;21.60;;;10.70;;
76228;SDS011;65021;53.174;18.160;2023-10-13T10:51:14;25.00;;;11.10;;
76228;SDS011;65021;53.174;18.160;2023-10-13T10:53:51;23.60;;;10.60;;
76228;SDS011;65021;53.174;18.160;2023-10-13T10:56:22;20.90;;;9.40;;
76228;SDS011;65021;53.174;18.160;2023-10-13T10:59:03;19.80;;;9.20;;
76228;SDS011;65021;53.174;18.160;2023-10-13T11:01:42;21.70;;;9.20;;
76228;SDS011;65021;53.174;18.160;2023-10-13T11:04:13;18.60;;;9.80;;
76228;SDS011;65021;53.174;18.160;2023-10-13T11:09:28;19.50;;;9.70;;
76228;SDS011;65021;53.174;18.160;2023-10-13T11:14:32;23.20;;;8.70;;
76228;SDS011;65021;53.174;18.160;2023-10-13T11:16:59;17.80;;;7.40;;
76228;SDS011;65021;53.174;18.160;2023-10-13T11:19:42;21.00;;;7.80;;
76228;SDS011;65021;53.174;18.160;2023-10-13T11:22:36;17.60;;;7.70;;
76228;SDS011;65021;53.174;18.160;2023-10-13T11:25:03;18.50;;;7.40;;
76228;SDS011;65021;53.174;18.160;2023-10-13T11:27:40;16.30;;;7.80;;
76228;SDS011;65021;53.174;18.160;2023-10-13T11:30:23;19.40;;;8.10;;
76228;SDS011;65021;53.174;18.160;2023-10-13T11:32:57;16.70;;;7.70;;
76228;SDS011;65021;53.174;18.160;2023-10-13T11:35:25;16.40;;;8.40;;
76228;SDS011;65021;53.174;18.160;2023-10-13T11:37:55;15.50;;;7.20;;
76228;SDS011;65021;53.174;18.160;2023-10-13T11:40:39;13.30;;;7.20;;
76228;SDS011;65021;53.174;18.160;2023-10-13T11:43:25;17.50;;;7.00;;
76228;SDS011;65021;53.174;18.160;2023-10-13T11:45:52;17.80;;;8.00;;
76228;SDS011;65021;53.174;18.160;2023-10-13T11:48:40;15.70;;;7.00;;
76228;SDS011;65021;53.174;18.160;2023-10-13T11:51:10;15.10;;;7.00;;
76228;SDS011;65021;53.174;18.160;2023-10-13T11:53:43;20.20;;;7.20;;
76228;SDS011;65021;53.174;18.160;2023-10-13T11:56:21;16.50;;;6.80;;
76228;SDS011;65021;53.174;18.160;2023-10-13T11:58:48;15.60;;;7.10;;
76228;SDS011;65021;53.174;18.160;2023-10-13T12:01:15;15.40;;;6.90;;
76228;SDS011;65021;53.174;18.160;2023-10-13T12:04:08;14.80;;;7.40;;
76228;SDS011;65021;53.174;18.160;2023-10-13T12:06:53;14.50;;;7.70;;
76228;SDS011;65021;53.174;18.160;2023-10-13T12:09:46;17.40;;;6.50;;
76228;SDS011;65021;53.174;18.160;2023-10-13T12:12:25;18.40;;;6.90;;
76228;SDS011;65021;53.174;18.160;2023-10-13T12:14:53;15.00;;;6.00;;
76228;SDS011;65021;53.174;18.160;2023-10-13T12:17:27;13.60;;;5.20;;
76228;SDS011;65021;53.174;18.160;2023-10-13T12:19:57;14.40;;;6.80;;
76228;SDS011;65021;53.174;18.160;2023-10-13T12:22:25;12.80;;;6.00;;
76228;SDS011;65021;53.174;18.160;2023-10-13T12:24:55;14.40;;;6.00;;
76228;SDS011;65021;53.174;18.160;2023-10-13T12:27:22;13.60;;;6.30;;
76228;SDS011;65021;53.174;18.160;2023-10-13T12:30:01;13.40;;;6.80;;
76228;SDS011;65021;53.174;18.160;2023-10-13T12:32:34;17.30;;;7.10;;
76228;SDS011;65021;53.174;18.160;2023-10-13T12:35:00;14.60;;;6.80;;
76228;SDS011;65021;53.174;18.160;2023-10-13T12:37:30;17.50;;;7.00;;
76228;SDS011;65021;53.174;18.160;2023-10-13T12:40:13;14.90;;;6.50;;
76228;SDS011;65021;53.174;18.160;2023-10-13T12:43:00;15.30;;;6.50;;
76228;SDS011;65021;53.174;18.160;2023-10-13T12:45:46;14.20;;;7.00;;
76228;SDS011;65021;53.174;18.160;2023-10-13T12:48:33;15.50;;;7.20;;
76228;SDS011;65021;53.174;18.160;2023-10-13T12:51:18;15.00;;;6.50;;
76228;SDS011;65021;53.174;18.160;2023-10-13T12:53:54;16.70;;;6.90;;
76228;SDS011;65021;53.174;18.160;2023-10-13T12:56:30;20.30;;;7.20;;
76228;SDS011;65021;53.174;18.160;2023-10-13T12:58:57;13.90;;;6.80;;
76228;SDS011;65021;53.174;18.160;2023-10-13T13:01:24;11.50;;;5.80;;
76228;SDS011;65021;53.174;18.160;2023-10-13T13:03:52;13.90;;;6.50;;
76228;SDS011;65021;53.174;18.160;2023-10-13T13:06:23;15.40;;;7.80;;
76228;SDS011;65021;53.174;18.160;2023-10-13T13:08:51;21.90;;;8.20;;
76228;SDS011;65021;53.174;18.160;2023-10-13T13:11:18;11.70;;;5.80;;
76228;SDS011;65021;53.174;18.160;2023-10-13T13:13:45;14.60;;;8.50;;
76228;SDS011;65021;53.174;18.160;2023-10-13T13:21:09;14.10;;;7.40;;
76228;SDS011;65021;53.174;18.160;2023-10-13T13:23:38;15.70;;;8.30;;
76228;SDS011;65021;53.174;18.160;2023-10-13T13:26:06;18.90;;;7.90;;
76228;SDS011;65021;53.174;18.160;2023-10-13T13:28:42;14.70;;;7.80;;
76228;SDS011;65021;53.174;18.160;2023-10-13T13:31:08;10.00;;;4.50;;
76228;SDS011;65021;53.174;18.160;2023-10-13T13:33:35;13.10;;;6.10;;
76228;SDS011;65021;53.174;18.160;2023-10-13T13:36:05;15.40;;;8.50;;
76228;SDS011;65021;53.174;18.160;2023-10-13T13:38:31;15.20;;;8.30;;
76228;SDS011;65021;53.174;18.160;2023-10-13T13:41:01;13.50;;;7.90;;
76228;SDS011;65021;53.174;18.160;2023-10-13T13:43:29;16.40;;;8.80;;
76228;SDS011;65021;53.174;18.160;2023-10-13T13:46:04;16.70;;;8.20;;
76228;SDS011;65021;53.174;18.160;2023-10-13T13:48:38;12.20;;;7.10;;
76228;SDS011;65021;53.174;18.160;2023-10-13T13:51:07;16.20;;;7.60;;
76228;SDS011;65021;53.174;18.160;2023-10-13T13:54:00;12.70;;;7.40;;
76228;SDS011;65021;53.174;18.160;2023-10-13T13:56:27;14.70;;;8.20;;
76228;SDS011;65021;53.174;18.160;2023-10-13T13:58:55;12.40;;;7.10;;
76228;SDS011;65021;53.174;18.160;2023-10-13T14:01:22;12.80;;;7.40;;
76228;SDS011;65021;53.174;18.160;2023-10-13T14:03:52;11.00;;;7.40;;
76228;SDS011;65021;53.174;18.160;2023-10-13T14:06:23;15.30;;;8.00;;
76228;SDS011;65021;53.174;18.160;2023-10-13T14:08:51;11.50;;;7.00;;
76228;SDS011;65021;53.174;18.160;2023-10-13T14:11:26;8.80;;;4.30;;
76228;SDS011;65021;53.174;18.160;2023-10-13T14:14:06;10.90;;;6.10;;
76228;SDS011;65021;53.174;18.160;2023-10-13T14:16:55;11.30;;;5.80;;
76228;SDS011;65021;53.174;18.160;2023-10-13T14:19:29;9.90;;;4.90;;
76228;SDS011;65021;53.174;18.160;2023-10-13T14:21:56;8.90;;;4.90;;
76228;SDS011;65021;53.174;18.160;2023-10-13T14:24:24;9.60;;;5.90;;
76228;SDS011;65021;53.174;18.160;2023-10-13T14:26:55;9.90;;;5.50;;
76228;SDS011;65021;53.174;18.160;2023-10-13T14:29:22;10.30;;;5.10;;
76228;SDS011;65021;53.174;18.160;2023-10-13T14:31:52;9.20;;;4.50;;
76228;SDS011;65021;53.174;18.160;2023-10-13T14:34:19;10.60;;;5.10;;
76228;SDS011;65021;53.174;18.160;2023-10-13T14:36:48;8.30;;;5.00;;
76228;SDS011;65021;53.174;18.160;2023-10-13T14:39:14;11.30;;;4.90;;
76228;SDS011;65021;53.174;18.160;2023-10-13T14:41:41;7.80;;;3.90;;
76228;SDS011;65021;53.174;18.160;2023-10-13T14:44:07;9.10;;;4.60;;
76228;SDS011;65021;53.174;18.160;2023-10-13T14:46:35;9.90;;;4.60;;
76228;SDS011;65021;53.174;18.160;2023-10-13T14:49:02;8.00;;;4.80;;
76228;SDS011;65021;53.174;18.160;2023-10-13T14:51:29;7.60;;;3.50;;
76228;SDS011;65021;53.174;18.160;2023-10-13T14:53:58;13.10;;;5.30;;
76228;SDS011;65021;53.174;18.160;2023-10-13T14:56:30;11.60;;;5.20;;
76228;SDS011;65021;53.174;18.160;2023-10-13T14:58:56;9.40;;;5.20;;
76228;SDS011;65021;53.174;18.160;2023-10-13T15:01:23;9.60;;;4.80;;
76228;SDS011;65021;53.174;18.160;2023-10-13T15:03:54;8.70;;;4.70;;
76228;SDS011;65021;53.174;18.160;2023-10-13T15:06:25;7.40;;;4.60;;
76228;SDS011;65021;53.174;18.160;2023-10-13T15:08:56;7.50;;;4.60;;
76228;SDS011;65021;53.174;18.160;2023-10-13T15:11:24;7.10;;;4.00;;
76228;SDS011;65021;53.174;18.160;2023-10-13T15:14:02;7.90;;;4.00;;
76228;SDS011;65021;53.174;18.160;2023-10-13T15:16:30;9.60;;;5.10;;
76228;SDS011;65021;53.174;18.160;2023-10-13T15:18:56;7.60;;;3.90;;
76228;SDS011;65021;53.174;18.160;2023-10-13T15:21:26;8.70;;;5.10;;
76228;SDS011;65021;53.174;18.160;2023-10-13T15:23:56;10.60;;;5.50;;
76228;SDS011;65021;53.174;18.160;2023-10-13T15:26:30;7.20;;;4.50;;
76228;SDS011;65021;53.174;18.160;2023-10-13T15:28:57;10.20;;;5.40;;
76228;SDS011;65021;53.174;18.160;2023-10-13T15:31:26;10.30;;;5.20;;
76228;SDS011;65021;53.174;18.160;2023-10-13T15:33:59;10.40;;;5.30;;
76228;SDS011;65021;53.174;18.160;2023-10-13T15:36:33;11.60;;;6.70;;
76228;SDS011;65021;53.174;18.160;2023-10-13T15:39:00;11.60;;;6.20;;
76228;SDS011;65021;53.174;18.160;2023-10-13T15:41:28;12.60;;;5.90;;
76228;SDS011;65021;53.174;18.160;2023-10-13T15:43:55;12.40;;;5.50;;
76228;SDS011;65021;53.174;18.160;2023-10-13T15:46:22;8.50;;;5.50;;
76228;SDS011;65021;53.174;18.160;2023-10-13T15:48:52;10.50;;;5.20;;
76228;SDS011;65021;53.174;18.160;2023-10-13T15:51:19;10.00;;;6.00;;
76228;SDS011;65021;53.174;18.160;2023-10-13T15:53:46;12.00;;;5.60;;
76228;SDS011;65021;53.174;18.160;2023-10-13T15:56:17;9.90;;;5.20;;